Winnipeg, Canada
Current Conditions -  °F | °C
As of 8:00 AM on Sunday 21 Dec 2014 (Local Time) from CYWG Reporting Station
Haze Haze  
Wind Chill: 18°   Ceiling: 600
Heat Index: 28°   Visibility: 3mi
Dew Point: 27°   Wind: 13mph
Humidity: 93%   Direction: 180°S
Pressure: 29.66"   Gusts: NA
Location:  49.9°N, 97.14°W
Report Text: CYWG 211400Z 18011KT 3SM BR OVC006 M02/M03 A2966 RMK ST8 CIG VRB 004-008 SLP057
Loading
Personal Weather Stations






























Interactive Weather Map New forecast layout! Learn more

10-Day Weather Forecast

Advertisements
Track Severe Weather on mobile